Time;durP1;ratioP1;P1;durP2;ratioP2;P2;SDS_P1;SDS_P2;PMS_P1;PMS_P2;Temp;Humidity;BMP_temperature;BMP_pressure;BME280_temperature;BME280_humidity;BME280_pressure;Samples;Min_cycle;Max_cycle;Signal;HPM_P1;HPM_P2
2022/03/04 00:00:55;;;;;;;22.10;11.32;;;;;;;;;;5015040;28;20174;-75
2022/03/04 00:03:21;;;;;;;20.27;11.25;;;;;;;;;;5014182;28;20533;-75
2022/03/04 00:05:47;;;;;;;19.75;10.93;;;;;;;;;;5032581;28;20167;-75
2022/03/04 00:08:13;;;;;;;19.95;11.80;;;;;;;;;;5014902;28;20136;-75
2022/03/04 00:10:39;;;;;;;19.33;9.68;;;;;;;;;;5014730;28;20605;-75
2022/03/04 00:13:05;;;;;;;21.10;10.80;;;1.30;99.90;;;;;;5015001;28;20044;-75
2022/03/04 00:15:31;;;;;;;18.92;10.00;;;1.70;99.90;;;;;;5014841;28;20398;-75
2022/03/04 00:17:57;;;;;;;19.75;9.88;;;1.70;99.90;;;;;;5014111;28;20041;-75
2022/03/04 00:20:23;;;;;;;16.90;9.95;;;1.60;99.90;;;;;;5014997;28;20045;-75
2022/03/04 00:22:49;;;;;;;18.65;11.18;;;1.60;99.90;;;;;;5014391;28;20073;-75
2022/03/04 00:25:15;;;;;;;19.02;10.07;;;1.50;99.90;;;;;;5031830;28;20127;-75
2022/03/04 00:27:41;;;;;;;20.77;10.15;;;1.60;99.90;;;;;;5014379;28;20044;-75
2022/03/04 00:30:07;;;;;;;19.88;9.75;;;1.30;99.90;;;;;;5014546;28;20048;-74
2022/03/04 00:32:34;;;;;;;20.05;11.57;;;1.30;99.90;;;;;;5013891;28;20041;-75
2022/03/04 00:35:00;;;;;;;16.83;9.70;;;;;;;;;;5014836;28;20549;-74
2022/03/04 00:37:26;;;;;;;17.00;8.93;;;;;;;;;;5013817;28;20132;-74
2022/03/04 00:39:52;;;;;;;17.23;9.43;;;;;;;;;;5026731;28;20053;-74
2022/03/04 00:42:18;;;;;;;16.77;9.93;;;;;;;;;;5034057;28;20048;-74
2022/03/04 00:44:45;;;;;;;18.05;9.23;;;;;;;;;;5033568;28;20394;-74
2022/03/04 00:47:11;;;;;;;15.18;9.13;;;;;;;;;;5019925;28;20045;-74
2022/03/04 00:49:37;;;;;;;18.73;10.18;;;;;;;;;;5014630;28;20103;-74
2022/03/04 00:52:03;;;;;;;17.00;9.40;;;;;;;;;;4997309;28;20133;-74
2022/03/04 00:54:29;;;;;;;18.15;10.07;;;;;;;;;;5032202;28;20490;-74
2022/03/04 00:56:55;;;;;;;15.35;9.38;;;;;;;;;;5014073;28;20033;-75
2022/03/04 00:59:21;;;;;;;17.45;9.63;;;;;;;;;;5013305;28;20092;-75
2022/03/04 01:01:47;;;;;;;19.05;9.90;;;;;;;;;;5040008;28;20045;-75
2022/03/04 01:04:13;;;;;;;19.38;9.93;;;;;;;;;;5034341;28;20490;-75
2022/03/04 01:06:39;;;;;;;15.57;9.85;;;;;;;;;;5033628;28;20052;-75
2022/03/04 01:09:05;;;;;;;15.85;8.93;;;;;;;;;;5034068;28;20370;-74
2022/03/04 01:11:32;;;;;;;18.40;10.23;;;;;;;;;;5037498;28;20512;-75
2022/03/04 01:13:58;;;;;;;19.27;10.07;;;;;;;;;;5020510;28;20041;-75
2022/03/04 01:16:24;;;;;;;19.52;9.00;;;;;;;;;;5024690;28;20164;-75
2022/03/04 01:18:50;;;;;;;20.88;10.00;;;;;;;;;;5001737;28;20046;-75
2022/03/04 01:21:16;;;;;;;21.45;10.77;;;;;;;;;;5035003;28;20045;-75
2022/03/04 01:23:42;;;;;;;22.20;11.43;;;;;;;;;;5018249;28;20055;-75
2022/03/04 01:26:08;;;;;;;19.88;10.05;;;;;;;;;;5035563;28;20045;-74
2022/03/04 01:28:34;;;;;;;21.13;10.32;;;;;;;;;;5017215;28;20104;-74
2022/03/04 01:31:00;;;;;;;18.83;10.60;;;;;;;;;;5029069;28;20444;-74
2022/03/04 01:33:26;;;;;;;21.35;11.27;;;;;;;;;;5055351;28;20040;-74
2022/03/04 01:35:53;;;;;;;20.38;11.02;;;;;;;;;;5031086;28;20049;-75
2022/03/04 01:38:18;;;;;;;20.17;10.88;;;;;;;;;;5023295;28;20033;-75
2022/03/04 01:40:45;;;;;;;19.58;10.55;;;;;;;;;;5036588;28;20114;-74
2022/03/04 01:43:11;;;;;;;18.63;10.32;;;;;;;;;;5037265;28;20081;-75
2022/03/04 01:45:37;;;;;;;19.30;10.77;;;;;;;;;;5037509;28;20048;-74
2022/03/04 01:48:03;;;;;;;23.58;11.07;;;;;;;;;;5036446;28;20044;-74
2022/03/04 01:50:29;;;;;;;23.10;12.32;;;;;;;;;;5037146;28;20045;-75
2022/03/04 01:52:55;;;;;;;22.30;12.52;;;;;;;;;;5020490;28;20048;-75
2022/03/04 01:55:21;;;;;;;20.02;11.57;;;;;;;;;;5036534;28;20041;-75
2022/03/04 01:57:47;;;;;;;21.42;12.35;;;;;;;;;;5037074;28;20102;-75
2022/03/04 02:00:14;;;;;;;18.83;11.30;;;;;;;;;;5036855;28;20067;-75
2022/03/04 02:02:41;;;;;;;23.65;12.52;;;;;;;;;;5035985;28;20183;-75
2022/03/04 02:05:07;;;;;;;21.73;12.43;;;;;;;;;;5054920;28;20044;-74
2022/03/04 02:07:33;;;;;;;24.02;13.02;;;;;;;;;;5055511;28;20528;-74
2022/03/04 02:09:59;;;;;;;22.95;13.07;;;;;;;;;;5053877;28;20028;-74
2022/03/04 02:12:25;;;;;;;22.70;12.98;;;;;;;;;;5054401;28;20384;-74
2022/03/04 02:14:51;;;;;;;24.95;13.02;;;;;;;;;;5036550;28;20119;-75
2022/03/04 02:17:20;;;;;;;22.48;11.82;;;;;;;;;;5035961;28;20047;-74
2022/03/04 02:19:51;;;;;;;22.77;12.35;;;;;;;;;;5036562;28;20076;-75
2022/03/04 02:22:17;;;;;;;23.55;13.20;;;;;;;;;;5036345;28;20060;-75
2022/03/04 02:24:43;;;;;;;25.83;12.90;;;;;;;;;;5035731;28;20131;-76
2022/03/04 02:27:09;;;;;;;27.05;14.60;;;;;;;;;;5036395;28;20129;-75
2022/03/04 02:29:35;;;;;;;24.60;13.15;;;;;;;;;;5020156;28;20132;-75
2022/03/04 02:32:01;;;;;;;21.15;12.70;;;;;;;;;;5035434;28;20077;-74
2022/03/04 02:34:28;;;;;;;27.58;14.52;;;;;;;;;;5019633;28;20040;-75
2022/03/04 02:36:54;;;;;;;28.63;14.48;;;;;;;;;;5019556;28;20040;-75
2022/03/04 02:39:22;;;;;;;25.70;13.75;;;;;;;;;;5036057;28;20053;-75
2022/03/04 02:41:48;;;;;;;23.92;13.63;;;;;;;;;;5036257;28;20423;-75
2022/03/04 02:44:14;;;;;;;25.52;13.70;;;;;;;;;;5035184;28;20045;-75
2022/03/04 02:46:41;;;;;;;27.52;15.15;;;;;;;;;;5036344;28;20045;-75
2022/03/04 02:49:08;;;;;;;25.92;13.35;;;;;;;;;;5036527;28;20053;-74
2022/03/04 02:51:34;;;;;;;26.85;15.57;;;;;;;;;;5053605;28;20490;-75
2022/03/04 02:54:00;;;;;;;27.75;14.65;;;;;;;;;;5053831;28;20041;-74
2022/03/04 02:56:26;;;;;;;25.30;14.43;;;;;;;;;;5035929;28;20051;-75
2022/03/04 02:58:52;;;;;;;28.25;15.70;;;;;;;;;;5021750;28;20048;-75
2022/03/04 03:01:18;;;;;;;24.92;14.50;;;;;;;;;;4999784;28;20460;-75
2022/03/04 03:03:44;;;;;;;25.50;15.95;;;;;;;;;;5033998;28;20048;-75
2022/03/04 03:06:10;;;;;;;27.10;14.75;;;;;;;;;;5015282;28;20037;-76
2022/03/04 03:08:36;;;;;;;27.90;14.10;;;;;;;;;;5016238;28;20060;-75
2022/03/04 03:11:03;;;;;;;26.77;14.77;;;;;;;;;;5015618;28;20050;-75
2022/03/04 03:13:29;;;;;;;23.17;14.80;;;;;;;;;;5027433;28;20120;-75
2022/03/04 03:15:55;;;;;;;32.47;15.23;;;;;;;;;;5035456;28;20041;-75
2022/03/04 03:18:21;;;;;;;28.75;14.60;;;;;;;;;;5035840;28;20044;-75
2022/03/04 03:20:47;;;;;;;29.98;15.55;;;;;;;;;;5035277;28;20378;-75
2022/03/04 03:23:13;;;;;;;26.80;14.68;;;;;;;;;;5018840;28;20036;-75
2022/03/04 03:25:39;;;;;;;25.20;15.43;;;;;;;;;;5035924;28;20037;-76
2022/03/04 03:28:05;;;;;;;28.90;15.35;;;;;;;;;;5041727;28;20049;-76
2022/03/04 03:30:31;;;;;;;26.15;15.30;;;;;;;;;;5015352;28;20482;-75
2022/03/04 03:32:58;;;;;;;28.95;14.20;;;;;;;;;;5014864;28;20553;-76
2022/03/04 03:35:24;;;;;;;29.98;15.23;;;;;;;;;;5014970;28;20073;-76
2022/03/04 03:37:50;;;;;;;28.25;15.48;;;;;;;;;;5015491;28;20045;-76
2022/03/04 03:40:16;;;;;;;31.20;14.77;;;;;;;;;;5027037;28;20073;-76
2022/03/04 03:42:42;;;;;;;29.52;16.27;;;;;;;;;;5032059;28;20061;-76
2022/03/04 03:45:10;;;;;;;28.85;15.35;;;;;;;;;;5031969;28;20052;-76
2022/03/04 03:47:38;;;;;;;30.17;15.90;;;;;;;;;;5015275;28;20046;-75
2022/03/04 03:50:05;;;;;;;29.33;15.70;;;;;;;;;;5031582;28;20115;-75
2022/03/04 03:52:31;;;;;;;27.30;15.02;;;;;;;;;;5031272;28;20129;-76
2022/03/04 03:54:57;;;;;;;25.52;14.45;;;;;;;;;;5014618;28;20038;-76
2022/03/04 03:57:23;;;;;;;26.10;14.15;;;;;;;;;;5031552;28;20124;-75
2022/03/04 03:59:49;;;;;;;27.70;14.45;;;;;;;;;;5031630;28;20120;-76
2022/03/04 04:02:15;;;;;;;28.58;15.02;;;;;;;;;;5014460;28;20037;-76
2022/03/04 04:04:41;;;;;;;28.73;15.25;;;;;;;;;;5031413;28;20052;-76
2022/03/04 04:07:08;;;;;;;24.77;13.70;;;;;;;;;;5031078;28;20085;-76
2022/03/04 04:09:34;;;;;;;27.08;14.60;;;;;;;;;;5030735;28;20049;-75
2022/03/04 04:12:01;;;;;;;26.42;15.52;;;;;;;;;;5014749;28;20045;-74
2022/03/04 04:14:27;;;;;;;29.85;15.05;;;;;;;;;;5031555;28;20927;-75
2022/03/04 04:16:54;;;;;;;24.92;13.07;;;;;;;;;;5030335;28;20030;-75
2022/03/04 04:19:20;;;;;;;25.77;14.43;;;;;;;;;;5031095;28;20041;-75
2022/03/04 04:21:46;;;;;;;24.67;14.38;;;;;;;;;;5031116;28;20507;-75
2022/03/04 04:24:12;;;;;;;27.42;14.00;;;;;;;;;;5030437;28;20053;-75
2022/03/04 04:26:39;;;;;;;30.60;15.48;;;;;;;;;;5032949;28;20048;-75
2022/03/04 04:29:05;;;;;;;25.38;14.40;;;;;;;;;;5031658;28;20194;-74
2022/03/04 04:31:32;;;;;;;24.65;15.13;;;;;;;;;;5030636;28;20056;-75
2022/03/04 04:33:59;;;;;;;26.10;14.95;;;;;;;;;;5032351;28;20049;-75
2022/03/04 04:36:25;;;;;;;33.25;16.98;;;;;;;;;;5030812;28;20053;-75
2022/03/04 04:38:52;;;;;;;23.90;13.07;;;;;;;;;;5014155;28;20375;-74
2022/03/04 04:41:18;;;;;;;24.17;13.10;;;;;;;;;;5030954;28;20474;-75
2022/03/04 04:43:44;;;;;;;24.33;12.63;;;;;;;;;;5029949;28;20049;-75
2022/03/04 04:46:10;;;;;;;28.70;15.02;;;;;;;;;;5014383;28;20041;-75
2022/03/04 04:48:37;;;;;;;26.75;14.85;;;;;;;;;;5031117;28;20045;-75
2022/03/04 04:51:03;;;;;;;29.90;15.00;;;;;;;;;;5013487;28;20050;-75
2022/03/04 04:53:29;;;;;;;26.80;13.90;;;;;;;;;;5030749;28;20034;-75
2022/03/04 04:55:55;;;;;;;28.83;14.27;;;;;;;;;;5030938;28;20037;-75
2022/03/04 04:58:21;;;;;;;27.63;14.20;;;;;;;;;;5030277;28;20048;-76
2022/03/04 05:00:53;;;;;;;27.77;14.55;;;;;;;;;;5030760;28;20053;-75
2022/03/04 05:03:19;;;;;;;26.33;13.25;;;;;;;;;;5030771;28;20057;-75
2022/03/04 05:05:45;;;;;;;30.70;14.88;;;;;;;;;;5029824;28;20045;-75
2022/03/04 05:08:11;;;;;;;30.85;15.52;;;;;;;;;;5031827;28;20045;-75
2022/03/04 05:10:38;;;;;;;26.85;14.15;;;;;;;;;;5031123;28;20042;-74
2022/03/04 05:13:04;;;;;;;26.75;13.73;;;;;;;;;;5030011;28;20509;-75
2022/03/04 05:15:30;;;;;;;24.42;13.35;;;;;;;;;;5030526;28;20048;-75
2022/03/04 05:17:56;;;;;;;29.60;16.02;;;;;;;;;;5030162;28;20184;-75
2022/03/04 05:20:22;;;;;;;28.08;14.57;;;;;;;;;;5029797;28;20045;-75
2022/03/04 05:22:48;;;;;;;28.42;14.50;;;;;;;;;;5030526;28;20045;-75
2022/03/04 05:25:14;;;;;;;31.65;15.05;;;;;;;;;;5031828;28;20060;-75
2022/03/04 05:27:41;;;;;;;29.02;15.27;;;;;;;;;;5013675;28;20038;-75
2022/03/04 05:30:08;;;;;;;38.08;15.38;;;;;;;;;;5030766;28;20041;-75
2022/03/04 05:32:34;;;;;;;31.90;14.77;;;;;;;;;;5030195;28;20410;-75
2022/03/04 05:35:00;;;;;;;32.22;14.98;;;;;;;;;;5030147;28;20057;-75
2022/03/04 05:37:26;;;;;;;28.90;15.45;;;;;;;;;;5014071;28;20052;-76
2022/03/04 05:39:52;;;;;;;28.27;15.95;;;;;;;;;;5033072;28;20049;-76
2022/03/04 05:42:19;;;;;;;43.25;22.80;;;;;;;;;;5033692;28;20382;-75
2022/03/04 05:44:45;;;;;;;32.78;17.05;;;;;;;;;;5033674;28;20119;-76
2022/03/04 05:47:11;;;;;;;44.45;22.73;;;;;;;;;;5032924;28;20041;-75
2022/03/04 05:49:37;;;;;;;31.05;16.15;;;;;;;;;;5034098;28;20084;-75
2022/03/04 05:52:04;;;;;;;80.40;45.55;;;;;;;;;;5017335;28;20041;-76
2022/03/04 05:54:30;;;;;;;37.90;18.92;;;;;;;;;;5021334;28;20048;-76
2022/03/04 05:56:56;;;;;;;40.85;24.30;;;;;;;;;;5017179;28;20046;-76
2022/03/04 05:59:22;;;;;;;36.00;20.67;;;;;;;;;;5017573;28;20041;-74
2022/03/04 06:01:48;;;;;;;35.88;17.33;;;;;;;;;;5017110;28;20052;-74
2022/03/04 06:04:14;;;;;;;32.50;15.93;;;;;;;;;;5017475;28;20402;-78
2022/03/04 06:06:40;;;;;;;32.47;16.05;;;;;;;;;;5017341;28;20049;-78
2022/03/04 06:09:06;;;;;;;31.60;16.25;;;;;;;;;;5017490;28;20045;-78
2022/03/04 06:11:32;;;;;;;35.97;16.33;;;;;;;;;;5047070;28;20123;-78
2022/03/04 06:13:58;;;;;;;35.45;16.25;;;;;;;;;;5036917;28;20040;-78
2022/03/04 06:16:24;;;;;;;33.88;15.23;;;;;;;;;;5036731;28;20045;-74
2022/03/04 06:18:51;;;;;;;33.00;16.80;;;;;;;;;;5054537;28;20131;-74
2022/03/04 06:21:17;;;;;;;39.05;16.85;;;;;;;;;;5026903;28;20513;-74
2022/03/04 06:23:44;;;;;;;39.00;20.00;;;;;;;;;;5034095;28;20041;-74
2022/03/04 06:26:10;;;;;;;33.75;16.88;;;;;;;;;;5016865;28;20107;-74
2022/03/04 06:28:36;;;;;;;37.15;17.38;;;;;;;;;;5017346;28;20049;-74
2022/03/04 06:31:03;;;;;;;38.80;18.10;;;;;;;;;;5016400;28;20383;-75
2022/03/04 06:33:35;;;;;;;37.00;18.58;;;;;;;;;;5016464;28;20533;-74
2022/03/04 06:36:04;;;;;;;31.95;17.65;;;;;;;;;;5024244;28;20052;-75
2022/03/04 06:38:32;;;;;;;33.05;16.50;;;;;;;;;;5028983;28;20091;-74
2022/03/04 06:40:58;;;;;;;37.92;17.92;;;;;;;;;;5035755;28;20393;-74
2022/03/04 06:43:25;;;;;;;38.08;16.75;;;;;;;;;;5034849;28;20451;-74
2022/03/04 06:45:51;;;;;;;31.27;17.10;;;;;;;;;;5036031;28;20052;-74
2022/03/04 06:48:18;;;;;;;30.58;16.05;;;;;;;;;;5035998;28;20071;-73
2022/03/04 06:50:44;;;;;;;31.73;16.48;;;;;;;;;;5035271;28;20053;-73
2022/03/04 06:53:10;;;;;;;34.80;16.63;;;;;;;;;;5035932;28;20088;-74
2022/03/04 06:55:37;;;;;;;31.60;16.40;;;;;;;;;;5036355;28;20056;-74
2022/03/04 06:58:08;;;;;;;33.28;17.23;;;;;;;;;;5052717;28;20052;-75
2022/03/04 07:00:34;;;;;;;43.20;22.02;;;;;;;;;;5055196;28;20041;-74
2022/03/04 07:03:00;;;;;;;39.38;18.13;;;;;;;;;;5034978;28;20581;-74
2022/03/04 07:05:26;;;;;;;33.22;16.70;;;;;;;;;;5035073;28;20375;-74
2022/03/04 07:07:53;;;;;;;33.38;17.80;;;;;;;;;;5032589;28;20106;-74
2022/03/04 07:10:19;;;;;;;31.60;15.30;;;;;;;;;;5032256;28;20550;-74
2022/03/04 07:12:46;;;;;;;37.75;17.95;;;;;;;;;;5032922;28;20051;-74
2022/03/04 07:15:13;;;;;;;35.40;16.58;;;;;;;;;;5033440;28;20036;-74
2022/03/04 07:17:39;;;;;;;34.00;18.13;;;;;;;;;;5034362;28;20543;-74
2022/03/04 07:20:07;;;;;;;34.83;17.15;;;;;;;;;;5051347;28;20540;-77
2022/03/04 07:22:35;;;;;;;38.83;18.10;;;;;;;;;;5034746;28;20059;-75
2022/03/04 07:25:01;;;;;;;39.92;17.30;;;;;;;;;;5030968;28;20103;-76
2022/03/04 07:27:27;;;;;;;40.50;17.20;;;;;;;;;;5033995;28;20049;-76
2022/03/04 07:29:53;;;;;;;37.40;17.05;;;;;;;;;;5033876;28;20045;-76
2022/03/04 07:32:21;;;;;;;35.67;17.15;;;;;;;;;;5033067;28;20397;-76
2022/03/04 07:34:47;;;;;;;36.08;18.88;;;;;;;;;;5033720;28;20516;-76
2022/03/04 07:37:13;;;;;;;36.33;17.80;;;;;;;;;;5027079;28;20044;-75
2022/03/04 07:39:39;;;;;;;37.15;17.35;;;;;;;;;;5029691;28;20053;-75
2022/03/04 07:42:05;;;;;;;36.10;17.58;;;;;;;;;;5032522;28;20068;-75
2022/03/04 07:44:31;;;;;;;36.45;17.05;;;;;;;;;;5033225;28;20033;-76
2022/03/04 07:46:57;;;;;;;34.75;16.73;;;;;;;;;;5032822;28;20564;-76
2022/03/04 07:49:23;;;;;;;35.40;18.30;;;;;;;;;;5033042;28;20094;-77
2022/03/04 07:51:49;;;;;;;33.10;16.77;;;;;;;;;;5034018;28;20045;-77
2022/03/04 07:54:18;;;;;;;34.15;17.08;;;;;;;;;;5017690;28;20044;-76
2022/03/04 07:56:44;;;;;;;51.00;23.80;;;;;;;;;;5034273;28;20497;-76
2022/03/04 07:59:10;;;;;;;36.30;17.67;;;;;;;;;;5033989;28;20043;-76
2022/03/04 08:01:36;;;;;;;30.23;16.38;;;;;;;;;;5033335;28;20044;-76
2022/03/04 08:04:05;;;;;;;35.40;17.77;;;;;;;;;;5033913;28;20045;-77
2022/03/04 08:06:31;;;;;;;35.22;18.73;;;;;;;;;;5034159;28;20509;-76
2022/03/04 08:08:57;;;;;;;34.35;17.40;;;;;;;;;;5032840;28;20040;-76
2022/03/04 08:11:23;;;;;;;34.33;17.23;;;;;;;;;;5034163;28;20441;-75
2022/03/04 08:13:49;;;;;;;39.90;17.90;;;;;;;;;;5032628;28;20048;-75
2022/03/04 08:16:15;;;;;;;36.83;17.50;;;;;;;;;;5033211;28;20076;-76
2022/03/04 08:18:41;;;;;;;30.75;15.65;;;;;;;;;;5032683;28;20521;-76
2022/03/04 08:21:08;;;;;;;32.95;16.33;;;;;;;;;;5032394;28;20043;-75
2022/03/04 08:23:34;;;;;;;36.75;17.95;;;;;;;;;;5016353;28;20197;-75
2022/03/04 08:26:03;;;;;;;37.45;18.27;;;;;;;;;;5033453;28;20044;-75
2022/03/04 08:28:30;;;;;;;35.38;17.73;;;;;;;;;;5016140;28;20516;-75
2022/03/04 08:30:56;;;;;;;35.00;20.23;;;;;;;;;;5015480;28;20098;-75
2022/03/04 08:33:24;;;;;;;35.72;18.85;;;;;;;;;;5032185;28;20037;-75
2022/03/04 08:35:50;;;;;;;34.45;17.65;;;;;;;;;;5031723;28;20067;-75
2022/03/04 08:38:16;;;;;;;32.50;19.05;;;;;;;;;;5032116;28;20033;-75
2022/03/04 08:40:42;;;;;;;35.08;16.70;;;;;;;;;;5030424;28;20494;-75
2022/03/04 08:43:08;;;;;;;33.35;15.05;;;;;;;;;;5033321;28;20124;-75
2022/03/04 08:45:34;;;;;;;30.58;15.50;;;;;;;;;;5032724;28;20116;-74
2022/03/04 08:48:06;;;;;;;29.50;16.30;;;;;;;;;;5025675;28;20558;-74
2022/03/04 08:50:33;;;;;;;32.00;15.40;;;;;;;;;;5031853;28;20040;-75
2022/03/04 08:53:01;;;;;;;30.42;17.08;;;;;;;;;;5016224;28;20037;-76
2022/03/04 08:55:28;;;;;;;32.20;16.85;;;;;;;;;;5032574;28;20067;-74
2022/03/04 08:57:54;;;;;;;27.10;15.10;;;;;;;;;;5031282;28;20041;-74
2022/03/04 09:00:20;;;;;;;32.25;16.38;;;;;;;;;;5031955;28;20045;-75
2022/03/04 09:02:46;;;;;;;28.13;15.07;;;;;;;;;;5032113;28;20049;-74
2022/03/04 09:05:12;;;;;;;44.15;21.95;;;;;;;;;;5031476;28;20044;-74
2022/03/04 09:07:38;;;;;;;33.92;16.20;;;;;;;;;;5033099;28;20110;-74
2022/03/04 09:10:05;;;;;;;25.90;14.40;;;;;;;;;;5032242;28;20056;-75
2022/03/04 09:12:32;;;;;;;26.88;14.10;;;;;;;;;;5031433;28;20037;-74
2022/03/04 09:14:58;;;;;;;29.35;15.73;;;;;;;;;;5031955;28;20052;-74
2022/03/04 09:17:25;;;;;;;31.63;16.42;;;;;;;;;;5031856;28;20037;-74
2022/03/04 09:19:51;;;;;;;31.73;16.52;;;;;;;;;;5030154;28;20045;-74
2022/03/04 09:22:19;;;;;;;30.05;15.07;;;;;;;;;;5032187;28;20041;-78
2022/03/04 09:24:45;;;;;;;27.65;14.10;;;;;;;;;;5033973;28;20068;-74
2022/03/04 09:27:11;;;;;;;29.70;15.10;;;;;;;;;;5032923;28;20041;-74
2022/03/04 09:29:37;;;;;;;28.25;14.30;;;;;;;;;;5034046;28;20045;-74
2022/03/04 09:32:04;;;;;;;32.58;15.50;;;;;;;;;;5035362;28;20477;-74
2022/03/04 09:34:30;;;;;;;29.17;16.13;;;;;;;;;;5037814;28;20040;-74
2022/03/04 09:36:56;;;;;;;30.00;17.05;;;;;;;;;;5037742;28;20048;-74
2022/03/04 09:39:23;;;;;;;29.30;15.15;;;;;;;;;;5019962;28;20076;-74
2022/03/04 09:41:48;;;;;;;29.30;16.08;;;0.90;99.90;;;;;;5037419;28;20123;-68
2022/03/04 09:44:15;;;;;;;27.10;14.85;;;1.20;99.90;;;;;;5055385;28;20516;-71
2022/03/04 09:46:42;;;;;;;29.35;14.93;;;1.10;99.90;;;;;;5036812;28;20037;-73
2022/03/04 09:49:09;;;;;;;28.25;13.68;;;;;;;;;;5055422;28;20060;-69
2022/03/04 09:51:37;;;;;;;25.88;15.00;;;;;;;;;;5055203;28;20635;-65
2022/03/04 09:54:06;;;;;;;26.48;14.60;;;;;;;;;;5036609;28;20531;-64
2022/03/04 09:56:32;;;;;;;24.42;15.15;;;;;;;;;;5037379;28;20170;-66
2022/03/04 09:59:00;;;;;;;28.35;14.88;;;;;;;;;;5025980;28;20056;-66
2022/03/04 10:01:26;;;;;;;25.10;14.15;;;;;;;;;;5032924;28;20127;-66
2022/03/04 10:03:54;;;;;;;26.80;14.82;;;;;;;;;;5033209;28;20079;-66
2022/03/04 10:06:21;;;;;;;28.13;14.63;;;;;;;;;;5035236;28;20052;-66
2022/03/04 10:08:51;;;;;;;27.15;12.88;;;1.50;99.90;;;;;;5033354;28;20060;-66
2022/03/04 10:11:34;;;;;;;25.13;12.45;;;1.60;99.90;;;;;;5034362;28;20056;-66
2022/03/04 10:14:07;;;;;;;24.33;13.40;;;1.50;99.90;;;;;;5034163;28;20053;-69
2022/03/04 10:16:37;;;;;;;25.35;13.63;;;;;;;;;;5028959;28;20036;-68
2022/03/04 10:19:16;;;;;;;27.70;14.02;;;1.60;99.90;;;;;;5034024;28;20098;-69
2022/03/04 10:21:58;;;;;;;28.85;14.95;;;1.70;99.90;;;;;;5033090;28;20041;-68
2022/03/04 10:24:36;;;;;;;25.20;12.68;;;1.80;99.90;;;;;;5034116;28;20056;-68
2022/03/04 10:27:12;;;;;;;23.35;13.38;;;1.80;99.90;;;;;;5034037;28;20079;-68
2022/03/04 10:29:44;;;;;;;24.30;12.18;;;1.90;99.90;;;;;;5020181;28;20041;-70
2022/03/04 10:32:22;;;;;;;23.90;13.15;;;2.20;99.90;;;;;;5015046;28;20501;-68
2022/03/04 10:34:54;;;;;;;23.83;13.10;;;2.30;99.90;;;;;;5044458;28;20044;-68
2022/03/04 10:37:24;;;;;;;24.40;13.35;;;;;;;;;;5023410;28;20070;-68
2022/03/04 10:40:03;;;;;;;23.73;13.38;;;2.60;99.90;;;;;;5018796;28;20524;-68
2022/03/04 10:42:55;;;;;;;23.08;13.35;;;2.90;99.90;;;;;;5032138;28;20049;-68
2022/03/04 10:45:28;;;;;;;24.73;13.50;;;2.70;99.90;;;;;;5033179;28;20398;-69
2022/03/04 10:47:58;;;;;;;23.45;11.90;;;3.00;99.90;;;;;;5033923;28;20048;-68
2022/03/04 10:50:36;;;;;;;21.73;12.15;;;3.30;99.90;;;;;;5029934;28;20439;-68
2022/03/04 10:53:03;;;;;;;23.20;12.25;;;3.20;99.90;;;;;;5034907;28;20045;-71
2022/03/04 10:55:47;;;;;;;23.63;11.35;;;3.30;99.90;;;;;;5032821;28;20045;-66
2022/03/04 10:58:27;;;;;;;20.45;12.10;;;3.40;99.90;;;;;;5029422;28;20052;-68
2022/03/04 11:00:53;;;;;;;19.23;11.20;;;;;;;;;;5028809;28;20072;-68
2022/03/04 11:03:29;;;;;;;20.63;11.98;;;4.60;99.90;;;;;;5032414;28;20071;-68
2022/03/04 11:06:13;;;;;;;47.00;23.58;;;3.70;99.90;;;;;;5033251;28;20045;-67
2022/03/04 11:08:40;;;;;;;41.85;18.80;;;3.80;99.90;;;;;;5018341;28;20126;-67
2022/03/04 11:11:07;;;;;;;27.55;15.43;;;3.80;99.90;;;;;;5049297;28;20516;-67
2022/03/04 11:13:34;;;;;;;27.55;16.50;;;;;;;;;;5032542;28;20037;-67
2022/03/04 11:16:00;;;;;;;30.20;17.63;;;;;;;;;;5030909;28;20052;-69
2022/03/04 11:18:26;;;;;;;30.45;16.55;;;;;;;;;;5031522;28;20052;-69
2022/03/04 11:20:55;;;;;;;20.40;12.80;;;4.10;99.90;;;;;;5031722;28;20119;-69
2022/03/04 11:23:26;;;;;;;22.92;13.43;;;4.30;99.90;;;;;;5039074;28;20045;-69
2022/03/04 11:26:01;;;;;;;21.02;11.73;;;4.30;99.90;;;;;;5027159;28;20041;-69
2022/03/04 11:28:41;;;;;;;19.63;11.20;;;4.10;99.90;;;;;;5035797;28;20037;-69
2022/03/04 11:31:12;;;;;;;16.58;10.10;;;4.40;99.90;;;;;;5031748;28;20098;-69
2022/03/04 11:33:52;;;;;;;18.98;11.02;;;5.00;99.90;;;;;;5049538;28;20049;-69
2022/03/04 11:36:20;;;;;;;18.15;10.63;;;4.60;99.90;;;;;;5030920;28;20037;-69
2022/03/04 11:38:49;;;;;;;18.48;10.93;;;5.00;99.90;;;;;;5031082;28;20479;-69
2022/03/04 11:41:23;;;;;;;18.27;10.90;;;4.70;99.90;;;;;;5015626;28;20102;-69
2022/03/04 11:43:49;;;;;;;17.02;9.23;;;;;;;;;;5031865;28;20048;-67
2022/03/04 11:46:19;;;;;;;19.15;10.38;;;4.60;99.90;;;;;;5048632;28;20044;-68
2022/03/04 11:48:46;;;;;;;19.38;10.93;;;5.10;99.90;;;;;;5031864;28;20493;-72
2022/03/04 11:51:17;;;;;;;18.15;10.15;;;4.60;99.90;;;;;;5015047;28;20049;-72
2022/03/04 11:53:43;;;;;;;17.58;10.38;;;5.10;99.90;;;;;;5031416;28;20048;-72
2022/03/04 11:56:14;;;;;;;28.38;15.60;;;5.10;99.90;;;;;;5031373;28;20039;-72
2022/03/04 11:58:59;;;;;;;28.17;14.63;;;5.40;99.90;;;;;;5031300;28;20067;-72
2022/03/04 12:01:33;;;;;;;40.03;17.98;;;5.20;99.90;;;;;;5028831;28;20048;-72
2022/03/04 12:04:10;;;;;;;68.72;32.60;;;5.40;99.90;;;;;;5031270;28;20136;-71
2022/03/04 12:06:37;;;;;;;24.27;13.52;;;5.60;99.90;;;;;;5025490;28;20052;-72
2022/03/04 12:09:28;;;;;;;41.05;24.30;;;5.60;99.90;;;;;;5003643;28;20124;-71
2022/03/04 12:12:18;;;;;;;18.90;11.63;;;6.20;99.90;;;;;;5044895;28;20049;-72
2022/03/04 12:14:48;;;;;;;16.60;9.90;;;5.90;99.90;;;;;;5034529;28;20041;-71
2022/03/04 12:17:16;;;;;;;13.80;8.10;;;5.80;99.90;;;;;;5028509;28;20037;-72
2022/03/04 12:19:42;;;;;;;16.75;9.05;;;;;;;;;;5031481;28;20049;-71
2022/03/04 12:22:10;;;;;;;16.05;8.02;;;5.80;99.90;;;;;;5030447;28;20094;-71
2022/03/04 12:24:36;;;;;;;14.60;8.10;;;6.00;99.90;;;;;;5014998;28;20045;-71
2022/03/04 12:27:03;;;;;;;15.25;9.23;;;5.80;99.90;;;;;;5031262;28;20051;-71
2022/03/04 12:29:55;;;;;;;16.80;8.38;;;6.20;99.90;;;;;;5030275;28;20493;-71
2022/03/04 12:32:21;;;;;;;18.38;8.45;;;;;;;;;;5028714;28;20052;-70
2022/03/04 12:34:50;;;;;;;16.85;8.63;;;6.30;99.90;;;;;;5009314;28;20567;-70
2022/03/04 12:37:16;;;;;;;15.88;9.20;;;6.30;99.90;;;;;;5031675;28;20107;-70
2022/03/04 12:39:50;;;;;;;11.32;6.85;;;;;;;;;;5031338;28;20057;-72
2022/03/04 12:42:20;;;;;;;16.13;7.60;;;6.30;99.90;;;;;;5020629;28;20053;-72
2022/03/04 12:44:46;;;;;;;14.98;7.90;;;6.50;99.90;;;;;;5024793;28;20041;-71
2022/03/04 12:47:13;;;;;;;15.15;8.35;;;6.40;99.90;;;;;;5049163;28;20124;-70
2022/03/04 12:49:42;;;;;;;17.77;9.18;;;6.50;99.90;;;;;;5031088;28;20489;-70
2022/03/04 12:52:07;;;;;;;16.98;8.70;;;6.50;99.90;;;;;;5030893;28;20045;-70
2022/03/04 12:54:34;;;;;;;15.48;8.07;;;;;;;;;;5052968;28;20090;-70
2022/03/04 12:57:01;;;;;;;13.77;8.07;;;7.00;99.90;;;;;;5048591;28;20519;-70
2022/03/04 12:59:30;;;;;;;15.57;8.55;;;6.60;99.90;;;;;;5049462;28;20079;-70
2022/03/04 13:01:57;;;;;;;16.65;8.20;;;6.60;99.90;;;;;;5030473;28;20053;-70
2022/03/04 13:04:24;;;;;;;14.35;8.38;;;;;;;;;;5030467;28;20040;-70
2022/03/04 13:07:01;;;;;;;16.08;8.27;;;7.00;99.90;;;;;;5035066;28;20040;-70
2022/03/04 13:09:27;;;;;;;15.68;9.13;;;7.20;99.90;;;;;;5035219;28;20148;-70
2022/03/04 13:11:54;;;;;;;15.18;8.48;;;7.40;99.90;;;;;;5052718;28;20045;-70
2022/03/04 13:14:21;;;;;;;15.75;7.97;;;7.10;99.90;;;;;;5036027;28;20053;-70
2022/03/04 13:16:49;;;;;;;14.27;8.30;;;7.10;99.90;;;;;;5017720;28;20056;-69
2022/03/04 13:19:23;;;;;;;14.32;8.35;;;7.20;99.90;;;;;;5034971;28;20441;-70
2022/03/04 13:21:52;;;;;;;13.82;8.15;;;7.40;99.90;;;;;;5035568;28;20049;-70
2022/03/04 13:24:24;;;;;;;14.35;8.70;;;7.10;99.90;;;;;;5034811;28;20095;-70
2022/03/04 13:27:04;;;;;;;16.50;8.60;;;7.30;99.90;;;;;;5035349;28;20147;-70
2022/03/04 13:29:45;;;;;;;14.70;8.18;;;7.00;99.90;;;;;;5035264;28;20071;-70
2022/03/04 13:32:16;;;;;;;14.25;7.20;;;7.10;99.90;;;;;;5034205;28;20133;-70
2022/03/04 13:34:44;;;;;;;13.73;7.82;;;7.40;99.90;;;;;;5034383;28;20051;-70
2022/03/04 13:37:15;;;;;;;13.18;7.75;;;7.20;99.90;;;;;;5035258;28;20041;-70
2022/03/04 13:39:55;;;;;;;13.95;7.93;;;7.50;99.90;;;;;;5052175;28;20813;-70
2022/03/04 13:42:26;;;;;;;17.42;8.90;;;7.40;99.90;;;;;;5035163;28;20091;-70
2022/03/04 13:45:11;;;;;;;14.77;7.63;;;7.60;99.90;;;;;;5052827;28;20047;-70
2022/03/04 13:47:38;;;;;;;13.60;7.00;;;7.70;99.90;;;;;;5035381;28;20041;-70
2022/03/04 13:50:09;;;;;;;13.95;7.60;;;7.70;99.90;;;;;;5034378;28;20053;-69
2022/03/04 13:52:54;;;;;;;16.40;7.88;;;7.80;99.90;;;;;;5018048;28;20064;-70